This is the latest recevied weather packets stored in our database for station/object S51UL-6. If no packets are shown the sender has not sent any weather packets the latest 1 day(s).
| Time | Temp. | Humidity | Pressure | Rain* | Wind** | Luminosity | Snow |
|---|---|---|---|---|---|---|---|
| 1778079793 | 20.56° C | 56% | 1009.9 hPa | 0 mm | - | - | - |
| 1778079193 | 21.11° C | 57% | 1010 hPa | 0 mm | - | - | - |
| 1778078293 | 21.11° C | 56% | 1009.9 hPa | 0 mm | - | - | - |
| 1778077993 | 21.67° C | 54% | 1009.9 hPa | 0 mm | - | - | - |
| 1778077693 | 21.67° C | 54% | 1010.1 hPa | 0 mm | - | - | - |
| 1778077093 | 22.22° C | 53% | 1010 hPa | 0 mm | - | - | - |
| 1778074694 | 21.11° C | 56% | 1010.4 hPa | 0 mm | - | - | - |
| 1778073194 | 20.56° C | 56% | 1010.3 hPa | 0 mm | - | - | - |
| 1778072894 | 21.11° C | 55% | 1010.4 hPa | 0 mm | - | - | - |
| 1778071695 | 22.22° C | 55% | 1010.5 hPa | 0 mm | - | - | - |
| 1778071395 | 21.67° C | 55% | 1010.3 hPa | 0 mm | - | - | - |
| 1778070795 | 22.22° C | 52% | 1010.3 hPa | 0 mm | - | - | - |
| 1778070196 | 22.22° C | 52% | 1010.3 hPa | 0 mm | - | - | - |
| 1778069596 | 22.78° C | 52% | 1010.4 hPa | 0 mm | - | - | - |
| 1778068395 | 23.33° C | 51% | 1010.5 hPa | 0 mm | - | - | - |
| 1778067196 | 22.78° C | 53% | 1010.5 hPa | 0 mm | - | - | - |
| 1778066895 | 22.78° C | 53% | 1010.6 hPa | 0 mm | - | - | - |
| 1778066295 | 21.67° C | 56% | 1010.8 hPa | 0 mm | - | - | - |
| 1778065695 | 20.56° C | 58% | 1010.9 hPa | 0 mm | - | - | - |
| 1778065396 | 20.56° C | 58% | 1011 hPa | 0 mm | - | - | - |
| 1778064495 | 20.56° C | 56% | 1011 hPa | 0 mm | - | - | - |
| 1778063296 | 21.67° C | 54% | 1011.1 hPa | 0 mm | - | - | - |
| 1778062996 | 21.11° C | 56% | 1011.2 hPa | 0 mm | - | - | - |
| 1778062096 | 21.11° C | 55% | 1011.4 hPa | 0 mm | - | - | - |
| 1778061196 | 21.11° C | 54% | 1011.5 hPa | 0 mm | - | - | - |
* Rain latest hour (hover to see other rain measurements)
** Current wind speed in m/s (hover to see current wind gust speed)